sensor_id;sensor_type;location;lat;lon;timestamp;pressure;altitude;pressure_sealevel;temperature;humidity
13013;BME280;22580;57.670;12.006;2024-02-21T00:01:37;100550.13;;;13.85;98.11
13013;BME280;22580;57.670;12.006;2024-02-21T00:04:12;100624.06;;;14.19;98.45
13013;BME280;22580;57.670;12.006;2024-02-21T00:06:41;100670.97;;;14.57;98.75
13013;BME280;22580;57.670;12.006;2024-02-21T00:09:12;100656.97;;;14.32;99.42
13013;BME280;22580;57.670;12.006;2024-02-21T00:11:40;100645.19;;;14.24;99.78
13013;BME280;22580;57.670;12.006;2024-02-21T00:14:07;100661.47;;;14.53;99.11
13013;BME280;22580;57.670;12.006;2024-02-21T00:16:36;100664.97;;;14.43;99.71
13013;BME280;22580;57.670;12.006;2024-02-21T00:19:04;100674.72;;;14.45;99.88
13013;BME280;22580;57.670;12.006;2024-02-21T00:21:33;100670.38;;;14.53;99.75
13013;BME280;22580;57.670;12.006;2024-02-21T00:24:01;100670.94;;;14.47;99.88
13013;BME280;22580;57.670;12.006;2024-02-21T00:26:28;100657.06;;;14.52;99.53
13013;BME280;22580;57.670;12.006;2024-02-21T00:28:55;100660.44;;;14.44;100.00
13013;BME280;22580;57.670;12.006;2024-02-21T00:31:22;100655.56;;;14.68;99.33
13013;BME280;22580;57.670;12.006;2024-02-21T00:33:49;100646.84;;;14.46;100.00
13013;BME280;22580;57.670;12.006;2024-02-21T00:36:16;100622.38;;;14.18;100.00
13013;BME280;22580;57.670;12.006;2024-02-21T00:38:46;100639.09;;;14.52;99.99
13013;BME280;22580;57.670;12.006;2024-02-21T00:41:13;100638.38;;;14.50;100.00
13013;BME280;22580;57.670;12.006;2024-02-21T00:43:41;100633.13;;;14.49;100.00
13013;BME280;22580;57.670;12.006;2024-02-21T00:46:08;100633.88;;;14.60;100.00
13013;BME280;22580;57.670;12.006;2024-02-21T00:48:35;100568.72;;;14.07;100.00
13013;BME280;22580;57.670;12.006;2024-02-21T00:51:03;100550.00;;;13.96;100.00
13013;BME280;22580;57.670;12.006;2024-02-21T00:53:30;100533.13;;;13.84;100.00
13013;BME280;22580;57.670;12.006;2024-02-21T00:55:59;100484.75;;;13.74;100.00
13013;BME280;22580;57.670;12.006;2024-02-21T00:58:26;100480.94;;;13.77;100.00
13013;BME280;22580;57.670;12.006;2024-02-21T01:00:53;100566.53;;;14.31;99.95
13013;BME280;22580;57.670;12.006;2024-02-21T01:03:20;100595.78;;;14.55;99.92
13013;BME280;22580;57.670;12.006;2024-02-21T01:05:47;100526.81;;;14.04;100.00
13013;BME280;22580;57.670;12.006;2024-02-21T01:08:14;100532.50;;;14.11;100.00
13013;BME280;22580;57.670;12.006;2024-02-21T01:10:42;100581.22;;;14.58;99.65
13013;BME280;22580;57.670;12.006;2024-02-21T01:13:11;100578.16;;;14.01;100.00
13013;BME280;22580;57.670;12.006;2024-02-21T01:15:38;100481.22;;;13.74;100.00
13013;BME280;22580;57.670;12.006;2024-02-21T01:18:05;100545.69;;;14.24;100.00
13013;BME280;22580;57.670;12.006;2024-02-21T01:20:32;100553.66;;;14.35;100.00
13013;BME280;22580;57.670;12.006;2024-02-21T01:22:59;100548.00;;;13.98;100.00
13013;BME280;22580;57.670;12.006;2024-02-21T01:25:29;100538.88;;;14.10;100.00
13013;BME280;22580;57.670;12.006;2024-02-21T01:27:57;100516.00;;;14.25;100.00
13013;BME280;22580;57.670;12.006;2024-02-21T01:30:26;100516.72;;;14.37;100.00
13013;BME280;22580;57.670;12.006;2024-02-21T01:32:52;100473.69;;;14.27;100.00
13013;BME280;22580;57.670;12.006;2024-02-21T01:35:19;100526.91;;;14.33;100.00
13013;BME280;22580;57.670;12.006;2024-02-21T01:37:46;100505.75;;;14.50;100.00
13013;BME280;22580;57.670;12.006;2024-02-21T01:40:15;100504.19;;;14.66;100.00
13013;BME280;22580;57.670;12.006;2024-02-21T01:42:43;100495.13;;;14.67;100.00
13013;BME280;22580;57.670;12.006;2024-02-21T01:45:10;100489.03;;;14.65;99.95
13013;BME280;22580;57.670;12.006;2024-02-21T01:47:39;100481.09;;;14.45;100.00
13013;BME280;22580;57.670;12.006;2024-02-21T01:50:08;100460.59;;;14.53;100.00
13013;BME280;22580;57.670;12.006;2024-02-21T01:52:36;100460.44;;;14.55;100.00
13013;BME280;22580;57.670;12.006;2024-02-21T01:55:04;100469.50;;;14.63;100.00
13013;BME280;22580;57.670;12.006;2024-02-21T01:57:32;100449.69;;;14.45;100.00
13013;BME280;22580;57.670;12.006;2024-02-21T02:00:00;100455.91;;;14.55;100.00
13013;BME280;22580;57.670;12.006;2024-02-21T02:02:28;100445.56;;;14.70;100.00
13013;BME280;22580;57.670;12.006;2024-02-21T02:04:59;100439.22;;;14.61;100.00
13013;BME280;22580;57.670;12.006;2024-02-21T02:07:27;100370.81;;;14.25;100.00
13013;BME280;22580;57.670;12.006;2024-02-21T02:10:00;100404.09;;;14.43;100.00
13013;BME280;22580;57.670;12.006;2024-02-21T02:12:28;100400.44;;;14.54;100.00
13013;BME280;22580;57.670;12.006;2024-02-21T02:15:00;100398.44;;;14.56;100.00
13013;BME280;22580;57.670;12.006;2024-02-21T02:17:27;100404.66;;;14.66;100.00
13013;BME280;22580;57.670;12.006;2024-02-21T02:19:54;100391.63;;;14.62;100.00
13013;BME280;22580;57.670;12.006;2024-02-21T02:22:27;100392.63;;;14.70;100.00
13013;BME280;22580;57.670;12.006;2024-02-21T02:24:57;100391.22;;;14.66;100.00
13013;BME280;22580;57.670;12.006;2024-02-21T02:27:24;100307.44;;;14.13;100.00
13013;BME280;22580;57.670;12.006;2024-02-21T02:29:51;100302.91;;;14.23;100.00
13013;BME280;22580;57.670;12.006;2024-02-21T02:32:18;100366.44;;;14.53;100.00
13013;BME280;22580;57.670;12.006;2024-02-21T02:34:45;100360.38;;;14.41;100.00
13013;BME280;22580;57.670;12.006;2024-02-21T02:37:13;100357.25;;;14.56;100.00
13013;BME280;22580;57.670;12.006;2024-02-21T02:39:40;100349.34;;;14.45;100.00
13013;BME280;22580;57.670;12.006;2024-02-21T02:42:09;100317.63;;;14.29;100.00
13013;BME280;22580;57.670;12.006;2024-02-21T02:44:36;100347.59;;;14.63;100.00
13013;BME280;22580;57.670;12.006;2024-02-21T02:47:03;100342.66;;;14.58;100.00
13013;BME280;22580;57.670;12.006;2024-02-21T02:49:33;100325.41;;;14.41;100.00
13013;BME280;22580;57.670;12.006;2024-02-21T02:52:00;100333.44;;;14.61;100.00
13013;BME280;22580;57.670;12.006;2024-02-21T02:54:28;100306.59;;;14.41;100.00
13013;BME280;22580;57.670;12.006;2024-02-21T02:56:55;100283.09;;;14.24;100.00
13013;BME280;22580;57.670;12.006;2024-02-21T02:59:24;100319.44;;;14.67;100.00
13013;BME280;22580;57.670;12.006;2024-02-21T03:01:51;100303.44;;;14.65;100.00
13013;BME280;22580;57.670;12.006;2024-02-21T03:04:18;100298.63;;;14.59;100.00
13013;BME280;22580;57.670;12.006;2024-02-21T03:06:45;100293.00;;;14.53;100.00
13013;BME280;22580;57.670;12.006;2024-02-21T03:09:12;100287.06;;;14.30;100.00
13013;BME280;22580;57.670;12.006;2024-02-21T03:11:41;100294.81;;;14.52;100.00
13013;BME280;22580;57.670;12.006;2024-02-21T03:14:10;100282.75;;;14.66;100.00
13013;BME280;22580;57.670;12.006;2024-02-21T03:16:38;100182.56;;;13.98;100.00
13013;BME280;22580;57.670;12.006;2024-02-21T03:19:05;100259.03;;;14.32;100.00
13013;BME280;22580;57.670;12.006;2024-02-21T03:21:33;100271.75;;;14.30;100.00
13013;BME280;22580;57.670;12.006;2024-02-21T03:24:01;100250.41;;;14.29;100.00
13013;BME280;22580;57.670;12.006;2024-02-21T03:26:29;100274.13;;;14.62;100.00
13013;BME280;22580;57.670;12.006;2024-02-21T03:28:56;100278.09;;;14.58;100.00
13013;BME280;22580;57.670;12.006;2024-02-21T03:31:23;100273.88;;;14.56;100.00
13013;BME280;22580;57.670;12.006;2024-02-21T03:33:52;100274.28;;;14.61;100.00
13013;BME280;22580;57.670;12.006;2024-02-21T03:36:19;100260.53;;;14.64;100.00
13013;BME280;22580;57.670;12.006;2024-02-21T03:38:46;100251.09;;;14.40;100.00
13013;BME280;22580;57.670;12.006;2024-02-21T03:41:14;100257.06;;;14.44;100.00
13013;BME280;22580;57.670;12.006;2024-02-21T03:43:42;100227.47;;;14.44;100.00
13013;BME280;22580;57.670;12.006;2024-02-21T03:46:09;100245.16;;;14.37;100.00
13013;BME280;22580;57.670;12.006;2024-02-21T03:48:35;100236.66;;;14.32;100.00
13013;BME280;22580;57.670;12.006;2024-02-21T03:51:04;100240.06;;;14.43;100.00
13013;BME280;22580;57.670;12.006;2024-02-21T03:53:31;100231.97;;;14.53;100.00
13013;BME280;22580;57.670;12.006;2024-02-21T03:56:01;100220.47;;;14.61;100.00
13013;BME280;22580;57.670;12.006;2024-02-21T03:58:29;100212.00;;;14.56;100.00
13013;BME280;22580;57.670;12.006;2024-02-21T04:00:57;100216.50;;;14.65;100.00
13013;BME280;22580;57.670;12.006;2024-02-21T04:03:25;100202.84;;;14.49;100.00
13013;BME280;22580;57.670;12.006;2024-02-21T04:05:52;100207.06;;;14.51;100.00
13013;BME280;22580;57.670;12.006;2024-02-21T04:08:22;100198.44;;;14.48;100.00
13013;BME280;22580;57.670;12.006;2024-02-21T04:10:49;100193.13;;;14.65;100.00
13013;BME280;22580;57.670;12.006;2024-02-21T04:13:18;100188.16;;;14.70;100.00
13013;BME280;22580;57.670;12.006;2024-02-21T04:15:45;100196.44;;;14.77;100.00
13013;BME280;22580;57.670;12.006;2024-02-21T04:18:12;100104.09;;;14.31;100.00
13013;BME280;22580;57.670;12.006;2024-02-21T04:20:40;100179.31;;;14.78;100.00
13013;BME280;22580;57.670;12.006;2024-02-21T04:23:07;100179.53;;;14.67;100.00
13013;BME280;22580;57.670;12.006;2024-02-21T04:25:36;100179.84;;;14.64;100.00
13013;BME280;22580;57.670;12.006;2024-02-21T04:28:04;100172.66;;;14.55;100.00
13013;BME280;22580;57.670;12.006;2024-02-21T04:30:31;100159.31;;;14.63;100.00
13013;BME280;22580;57.670;12.006;2024-02-21T04:32:58;100156.66;;;14.81;100.00
13013;BME280;22580;57.670;12.006;2024-02-21T04:35:25;100132.34;;;13.98;100.00
13013;BME280;22580;57.670;12.006;2024-02-21T04:37:52;100135.63;;;14.39;100.00
13013;BME280;22580;57.670;12.006;2024-02-21T04:40:20;100158.41;;;14.72;100.00
13013;BME280;22580;57.670;12.006;2024-02-21T04:42:49;100161.31;;;14.61;100.00
13013;BME280;22580;57.670;12.006;2024-02-21T04:45:16;100147.31;;;14.57;100.00
13013;BME280;22580;57.670;12.006;2024-02-21T04:47:43;100159.16;;;14.64;100.00
13013;BME280;22580;57.670;12.006;2024-02-21T04:50:10;100077.28;;;14.12;100.00
13013;BME280;22580;57.670;12.006;2024-02-21T04:52:38;100141.09;;;14.57;100.00
13013;BME280;22580;57.670;12.006;2024-02-21T04:55:08;100150.06;;;14.38;100.00
13013;BME280;22580;57.670;12.006;2024-02-21T04:57:35;100147.00;;;14.60;100.00
13013;BME280;22580;57.670;12.006;2024-02-21T05:00:05;100150.03;;;14.48;100.00
13013;BME280;22580;57.670;12.006;2024-02-21T05:02:32;100105.78;;;14.32;100.00
13013;BME280;22580;57.670;12.006;2024-02-21T05:04:59;100103.00;;;14.24;100.00
13013;BME280;22580;57.670;12.006;2024-02-21T05:07:26;100138.41;;;14.57;100.00
13013;BME280;22580;57.670;12.006;2024-02-21T05:09:53;100094.59;;;14.37;100.00
13013;BME280;22580;57.670;12.006;2024-02-21T05:12:22;100134.88;;;14.74;100.00
13013;BME280;22580;57.670;12.006;2024-02-21T05:14:49;100132.81;;;14.68;100.00
13013;BME280;22580;57.670;12.006;2024-02-21T05:17:20;100144.13;;;14.71;100.00
13013;BME280;22580;57.670;12.006;2024-02-21T05:19:47;100144.72;;;14.65;100.00
13013;BME280;22580;57.670;12.006;2024-02-21T05:22:15;100108.47;;;14.32;100.00
13013;BME280;22580;57.670;12.006;2024-02-21T05:24:42;100134.59;;;14.50;100.00
13013;BME280;22580;57.670;12.006;2024-02-21T05:27:09;100141.19;;;14.65;100.00
13013;BME280;22580;57.670;12.006;2024-02-21T05:29:36;100137.19;;;14.69;100.00
13013;BME280;22580;57.670;12.006;2024-02-21T05:32:07;100134.31;;;14.53;100.00
13013;BME280;22580;57.670;12.006;2024-02-21T05:34:35;100110.31;;;14.41;100.00
13013;BME280;22580;57.670;12.006;2024-02-21T05:37:03;100142.78;;;14.58;100.00
13013;BME280;22580;57.670;12.006;2024-02-21T05:39:30;100138.03;;;14.32;100.00
13013;BME280;22580;57.670;12.006;2024-02-21T05:42:10;100132.78;;;14.40;100.00
13013;BME280;22580;57.670;12.006;2024-02-21T05:44:44;100029.59;;;13.87;100.00
13013;BME280;22580;57.670;12.006;2024-02-21T05:47:22;100138.38;;;14.20;100.00
13013;BME280;22580;57.670;12.006;2024-02-21T05:49:50;100135.56;;;14.58;100.00
13013;BME280;22580;57.670;12.006;2024-02-21T05:52:19;100119.47;;;14.39;100.00
13013;BME280;22580;57.670;12.006;2024-02-21T05:54:45;100134.91;;;14.47;100.00
13013;BME280;22580;57.670;12.006;2024-02-21T05:57:13;100130.63;;;14.54;100.00
13013;BME280;22580;57.670;12.006;2024-02-21T05:59:40;100135.66;;;14.66;100.00
13013;BME280;22580;57.670;12.006;2024-02-21T06:02:09;100114.16;;;14.29;99.68
13013;BME280;22580;57.670;12.006;2024-02-21T06:04:36;100133.22;;;14.36;100.00
13013;BME280;22580;57.670;12.006;2024-02-21T06:07:04;100086.59;;;14.18;100.00
13013;BME280;22580;57.670;12.006;2024-02-21T06:09:31;100068.59;;;13.91;100.00
13013;BME280;22580;57.670;12.006;2024-02-21T06:11:58;100137.56;;;14.56;100.00
13013;BME280;22580;57.670;12.006;2024-02-21T06:14:25;100082.22;;;14.17;99.80
13013;BME280;22580;57.670;12.006;2024-02-21T06:16:53;100137.16;;;14.51;99.64
13013;BME280;22580;57.670;12.006;2024-02-21T06:19:19;100140.38;;;14.55;99.57
13013;BME280;22580;57.670;12.006;2024-02-21T06:21:47;100140.53;;;14.53;99.46
13013;BME280;22580;57.670;12.006;2024-02-21T06:24:15;100124.72;;;14.40;99.61
13013;BME280;22580;57.670;12.006;2024-02-21T06:26:43;100131.06;;;14.49;99.73
13013;BME280;22580;57.670;12.006;2024-02-21T06:29:11;100122.03;;;14.40;99.67
13013;BME280;22580;57.670;12.006;2024-02-21T06:31:39;100101.69;;;14.28;99.56
13013;BME280;22580;57.670;12.006;2024-02-21T06:34:07;100099.16;;;14.27;99.57
13013;BME280;22580;57.670;12.006;2024-02-21T06:36:34;100139.97;;;14.50;99.78
13013;BME280;22580;57.670;12.006;2024-02-21T06:39:00;100128.22;;;14.51;99.49
13013;BME280;22580;57.670;12.006;2024-02-21T06:41:31;100131.50;;;14.45;99.87
13013;BME280;22580;57.670;12.006;2024-02-21T06:43:59;100127.13;;;14.43;99.81
13013;BME280;22580;57.670;12.006;2024-02-21T06:46:27;100141.13;;;14.47;100.00
13013;BME280;22580;57.670;12.006;2024-02-21T06:48:55;100135.31;;;14.52;99.97
13013;BME280;22580;57.670;12.006;2024-02-21T06:51:22;100115.72;;;14.22;100.00
13013;BME280;22580;57.670;12.006;2024-02-21T06:53:50;100126.94;;;14.55;99.90
13013;BME280;22580;57.670;12.006;2024-02-21T06:56:17;100125.53;;;14.51;99.88
13013;BME280;22580;57.670;12.006;2024-02-21T06:58:45;100080.78;;;14.22;99.93
13013;BME280;22580;57.670;12.006;2024-02-21T07:01:12;100134.34;;;14.43;100.00
13013;BME280;22580;57.670;12.006;2024-02-21T07:03:39;100135.34;;;14.32;100.00
13013;BME280;22580;57.670;12.006;2024-02-21T07:06:06;100098.66;;;13.67;100.00
13013;BME280;22580;57.670;12.006;2024-02-21T07:08:33;100134.63;;;14.40;100.00
13013;BME280;22580;57.670;12.006;2024-02-21T07:10:59;100108.47;;;14.32;100.00
13013;BME280;22580;57.670;12.006;2024-02-21T07:13:27;100134.50;;;14.69;100.00
13013;BME280;22580;57.670;12.006;2024-02-21T07:15:55;100139.94;;;14.59;100.00
13013;BME280;22580;57.670;12.006;2024-02-21T07:18:22;100140.97;;;14.49;100.00
13013;BME280;22580;57.670;12.006;2024-02-21T07:20:50;100138.31;;;14.39;100.00
13013;BME280;22580;57.670;12.006;2024-02-21T07:23:18;100140.94;;;14.11;100.00
13013;BME280;22580;57.670;12.006;2024-02-21T07:25:45;100122.50;;;14.26;100.00
13013;BME280;22580;57.670;12.006;2024-02-21T07:28:12;100126.19;;;14.25;100.00
13013;BME280;22580;57.670;12.006;2024-02-21T07:30:41;100148.53;;;14.26;100.00
13013;BME280;22580;57.670;12.006;2024-02-21T07:33:10;100154.19;;;14.32;100.00
13013;BME280;22580;57.670;12.006;2024-02-21T07:35:36;100156.19;;;14.21;100.00
13013;BME280;22580;57.670;12.006;2024-02-21T07:38:03;100153.03;;;14.35;100.00
13013;BME280;22580;57.670;12.006;2024-02-21T07:40:34;100144.13;;;14.34;100.00
13013;BME280;22580;57.670;12.006;2024-02-21T07:43:01;100149.06;;;14.39;100.00
13013;BME280;22580;57.670;12.006;2024-02-21T07:45:28;100130.97;;;14.31;100.00
13013;BME280;22580;57.670;12.006;2024-02-21T07:47:55;100147.75;;;14.53;100.00
13013;BME280;22580;57.670;12.006;2024-02-21T07:50:24;100148.31;;;14.56;100.00
13013;BME280;22580;57.670;12.006;2024-02-21T07:52:51;100149.84;;;14.59;100.00
13013;BME280;22580;57.670;12.006;2024-02-21T07:55:18;100156.88;;;14.42;100.00
13013;BME280;22580;57.670;12.006;2024-02-21T07:57:45;100119.53;;;14.29;100.00
13013;BME280;22580;57.670;12.006;2024-02-21T08:00:12;100149.03;;;14.49;100.00
13013;BME280;22580;57.670;12.006;2024-02-21T08:02:45;100138.06;;;14.23;100.00
13013;BME280;22580;57.670;12.006;2024-02-21T08:05:11;100159.84;;;14.29;100.00
13013;BME280;22580;57.670;12.006;2024-02-21T08:07:40;100145.63;;;14.09;100.00
13013;BME280;22580;57.670;12.006;2024-02-21T08:10:08;100173.56;;;14.26;100.00
13013;BME280;22580;57.670;12.006;2024-02-21T08:12:35;100166.25;;;14.19;100.00
13013;BME280;22580;57.670;12.006;2024-02-21T08:15:03;100175.91;;;14.02;100.00
13013;BME280;22580;57.670;12.006;2024-02-21T08:17:30;100188.09;;;13.87;100.00
13013;BME280;22580;57.670;12.006;2024-02-21T08:19:57;100172.75;;;13.60;100.00
13013;BME280;22580;57.670;12.006;2024-02-21T08:22:24;100130.19;;;12.97;100.00
13013;BME280;22580;57.670;12.006;2024-02-21T08:24:52;100183.03;;;13.74;100.00
13013;BME280;22580;57.670;12.006;2024-02-21T08:27:19;100172.31;;;13.74;100.00
13013;BME280;22580;57.670;12.006;2024-02-21T08:29:46;100154.47;;;13.83;100.00
13013;BME280;22580;57.670;12.006;2024-02-21T08:32:13;100185.63;;;14.22;100.00
13013;BME280;22580;57.670;12.006;2024-02-21T08:34:40;100179.38;;;14.31;100.00
13013;BME280;22580;57.670;12.006;2024-02-21T08:37:07;100196.19;;;14.43;100.00
13013;BME280;22580;57.670;12.006;2024-02-21T08:39:36;100198.09;;;14.04;100.00
13013;BME280;22580;57.670;12.006;2024-02-21T08:42:05;100219.16;;;14.18;100.00
13013;BME280;22580;57.670;12.006;2024-02-21T08:44:33;100223.13;;;14.14;100.00
13013;BME280;22580;57.670;12.006;2024-02-21T08:47:00;100224.50;;;14.37;100.00
13013;BME280;22580;57.670;12.006;2024-02-21T08:49:29;100187.22;;;14.05;100.00
13013;BME280;22580;57.670;12.006;2024-02-21T08:51:56;100223.09;;;14.43;100.00
13013;BME280;22580;57.670;12.006;2024-02-21T08:54:24;100222.25;;;14.23;100.00
13013;BME280;22580;57.670;12.006;2024-02-21T08:56:51;100238.63;;;14.39;100.00
13013;BME280;22580;57.670;12.006;2024-02-21T08:59:20;100248.69;;;14.47;100.00
13013;BME280;22580;57.670;12.006;2024-02-21T09:01:46;100250.94;;;14.52;100.00
13013;BME280;22580;57.670;12.006;2024-02-21T09:04:17;100244.00;;;14.59;100.00
13013;BME280;22580;57.670;12.006;2024-02-21T09:06:44;100226.59;;;14.53;100.00
13013;BME280;22580;57.670;12.006;2024-02-21T09:09:12;100194.34;;;14.34;100.00
13013;BME280;22580;57.670;12.006;2024-02-21T09:11:38;100194.06;;;14.47;100.00
13013;BME280;22580;57.670;12.006;2024-02-21T09:14:07;100204.16;;;14.25;100.00
13013;BME280;22580;57.670;12.006;2024-02-21T09:16:36;100252.25;;;14.75;100.00
13013;BME280;22580;57.670;12.006;2024-02-21T09:19:03;100211.97;;;14.65;100.00
13013;BME280;22580;57.670;12.006;2024-02-21T09:21:30;100261.66;;;14.71;100.00
13013;BME280;22580;57.670;12.006;2024-02-21T09:23:57;100258.34;;;14.77;100.00
13013;BME280;22580;57.670;12.006;2024-02-21T09:26:24;100251.47;;;14.65;100.00
13013;BME280;22580;57.670;12.006;2024-02-21T09:28:52;100245.59;;;14.32;100.00
13013;BME280;22580;57.670;12.006;2024-02-21T09:31:19;100228.16;;;13.80;100.00
13013;BME280;22580;57.670;12.006;2024-02-21T09:33:47;100267.66;;;14.26;100.00
13013;BME280;22580;57.670;12.006;2024-02-21T09:36:14;100260.75;;;14.24;100.00
13013;BME280;22580;57.670;12.006;2024-02-21T09:38:43;100238.88;;;13.61;100.00
13013;BME280;22580;57.670;12.006;2024-02-21T09:41:25;100239.41;;;14.03;100.00
13013;BME280;22580;57.670;12.006;2024-02-21T09:43:52;100254.09;;;14.28;100.00
13013;BME280;22580;57.670;12.006;2024-02-21T09:46:36;100262.69;;;14.41;100.00
13013;BME280;22580;57.670;12.006;2024-02-21T09:49:16;100179.56;;;14.10;100.00
13013;BME280;22580;57.670;12.006;2024-02-21T09:51:49;100240.91;;;14.34;100.00
13013;BME280;22580;57.670;12.006;2024-02-21T09:54:18;100244.19;;;14.19;100.00
13013;BME280;22580;57.670;12.006;2024-02-21T09:56:46;100267.22;;;14.40;100.00
13013;BME280;22580;57.670;12.006;2024-02-21T09:59:14;100278.63;;;13.86;100.00
13013;BME280;22580;57.670;12.006;2024-02-21T10:01:42;100271.53;;;13.66;100.00
13013;BME280;22580;57.670;12.006;2024-02-21T10:04:11;100322.72;;;13.84;100.00
13013;BME280;22580;57.670;12.006;2024-02-21T10:06:39;100279.03;;;13.82;100.00
13013;BME280;22580;57.670;12.006;2024-02-21T10:09:06;100325.56;;;13.82;100.00
13013;BME280;22580;57.670;12.006;2024-02-21T10:11:33;100316.91;;;13.88;100.00
13013;BME280;22580;57.670;12.006;2024-02-21T10:14:04;100353.84;;;13.86;100.00
13013;BME280;22580;57.670;12.006;2024-02-21T10:16:31;100355.50;;;13.87;100.00
13013;BME280;22580;57.670;12.006;2024-02-21T10:18:58;100324.25;;;13.67;100.00
13013;BME280;22580;57.670;12.006;2024-02-21T10:21:27;100357.22;;;13.78;100.00
13013;BME280;22580;57.670;12.006;2024-02-21T10:23:55;100314.88;;;13.42;100.00
13013;BME280;22580;57.670;12.006;2024-02-21T10:26:22;100369.06;;;13.66;100.00
13013;BME280;22580;57.670;12.006;2024-02-21T10:28:49;100380.13;;;14.02;100.00
13013;BME280;22580;57.670;12.006;2024-02-21T10:31:23;100356.19;;;13.20;100.00
13013;BME280;22580;57.670;12.006;2024-02-21T10:33:55;100375.00;;;13.60;100.00
13013;BME280;22580;57.670;12.006;2024-02-21T10:36:23;100402.84;;;13.59;100.00
13013;BME280;22580;57.670;12.006;2024-02-21T10:38:52;100370.47;;;13.61;100.00
13013;BME280;22580;57.670;12.006;2024-02-21T10:41:20;100408.66;;;13.34;100.00
13013;BME280;22580;57.670;12.006;2024-02-21T10:43:49;100414.75;;;13.76;100.00
13013;BME280;22580;57.670;12.006;2024-02-21T10:46:19;100418.16;;;13.88;100.00
13013;BME280;22580;57.670;12.006;2024-02-21T10:48:47;100379.16;;;13.34;100.00
13013;BME280;22580;57.670;12.006;2024-02-21T10:51:27;100377.78;;;13.49;100.00
13013;BME280;22580;57.670;12.006;2024-02-21T10:54:05;100423.13;;;13.83;100.00
13013;BME280;22580;57.670;12.006;2024-02-21T10:56:38;100418.88;;;13.90;100.00
13013;BME280;22580;57.670;12.006;2024-02-21T10:59:07;100415.19;;;13.81;100.00
13013;BME280;22580;57.670;12.006;2024-02-21T11:01:34;100447.34;;;12.80;100.00
13013;BME280;22580;57.670;12.006;2024-02-21T11:04:04;100376.47;;;12.83;100.00
13013;BME280;22580;57.670;12.006;2024-02-21T11:06:32;100373.53;;;12.86;100.00
13013;BME280;22580;57.670;12.006;2024-02-21T11:09:02;100367.59;;;12.61;100.00
13013;BME280;22580;57.670;12.006;2024-02-21T11:11:32;100433.00;;;13.42;100.00
13013;BME280;22580;57.670;12.006;2024-02-21T11:14:07;100429.22;;;13.44;100.00
13013;BME280;22580;57.670;12.006;2024-02-21T11:16:38;100431.03;;;12.93;100.00
13013;BME280;22580;57.670;12.006;2024-02-21T11:19:08;100421.50;;;13.30;100.00
13013;BME280;22580;57.670;12.006;2024-02-21T11:21:36;100421.38;;;13.62;100.00
13013;BME280;22580;57.670;12.006;2024-02-21T11:24:06;100399.75;;;13.64;100.00
13013;BME280;22580;57.670;12.006;2024-02-21T11:26:32;100411.78;;;13.89;100.00
13013;BME280;22580;57.670;12.006;2024-02-21T11:29:01;100415.78;;;13.94;100.00
13013;BME280;22580;57.670;12.006;2024-02-21T11:31:38;100397.09;;;13.83;100.00
13013;BME280;22580;57.670;12.006;2024-02-21T11:34:08;100395.13;;;13.95;100.00
13013;BME280;22580;57.670;12.006;2024-02-21T11:36:35;100400.91;;;13.90;100.00
13013;BME280;22580;57.670;12.006;2024-02-21T11:39:06;100362.81;;;13.56;100.00
13013;BME280;22580;57.670;12.006;2024-02-21T11:41:35;100383.81;;;14.01;100.00
13013;BME280;22580;57.670;12.006;2024-02-21T11:44:02;100381.66;;;13.26;100.00
13013;BME280;22580;57.670;12.006;2024-02-21T11:46:29;100398.19;;;13.61;100.00
13013;BME280;22580;57.670;12.006;2024-02-21T11:48:56;100383.38;;;13.96;100.00
13013;BME280;22580;57.670;12.006;2024-02-21T11:51:25;100340.53;;;13.94;100.00
13013;BME280;22580;57.670;12.006;2024-02-21T11:53:53;100355.53;;;14.06;99.78
13013;BME280;22580;57.670;12.006;2024-02-21T11:56:21;100316.91;;;13.69;100.00
13013;BME280;22580;57.670;12.006;2024-02-21T11:58:49;100347.31;;;13.69;100.00
13013;BME280;22580;57.670;12.006;2024-02-21T12:01:16;100313.53;;;13.96;100.00
13013;BME280;22580;57.670;12.006;2024-02-21T12:03:43;100317.63;;;14.00;99.91
13013;BME280;22580;57.670;12.006;2024-02-21T12:06:16;100277.78;;;13.76;99.99
13013;BME280;22580;57.670;12.006;2024-02-21T12:08:47;100280.56;;;13.94;99.36
13013;BME280;22580;57.670;12.006;2024-02-21T12:11:22;100314.38;;;14.45;99.79
13013;BME280;22580;57.670;12.006;2024-02-21T12:13:59;100313.22;;;14.28;99.19
13013;BME280;22580;57.670;12.006;2024-02-21T12:16:29;100325.13;;;13.96;98.10
13013;BME280;22580;57.670;12.006;2024-02-21T12:18:56;100317.16;;;13.47;100.00
13013;BME280;22580;57.670;12.006;2024-02-21T12:21:24;100303.06;;;13.73;100.00
13013;BME280;22580;57.670;12.006;2024-02-21T12:23:51;100259.34;;;13.91;99.66
13013;BME280;22580;57.670;12.006;2024-02-21T12:26:18;100321.44;;;14.36;98.92
13013;BME280;22580;57.670;12.006;2024-02-21T12:28:46;100315.63;;;14.31;98.65
13013;BME280;22580;57.670;12.006;2024-02-21T12:31:13;100194.38;;;13.68;98.02
13013;BME280;22580;57.670;12.006;2024-02-21T12:33:41;100320.59;;;14.45;97.95
13013;BME280;22580;57.670;12.006;2024-02-21T12:36:08;100236.56;;;14.14;98.09